Time;durP1;ratioP1;P1;durP2;ratioP2;P2;SDS_P1;SDS_P2;PMS_P1;PMS_P2;Temp;Humidity;BMP_temperature;BMP_pressure;BME280_temperature;BME280_humidity;BME280_pressure;Samples;Min_cycle;Max_cycle;Signal;HPM_P1;HPM_P2
2022/02/04 00:08:28;;;;;;;20.40;8.73;;;;;;;;;;5069652;28;20447;-51
2022/02/04 00:22:25;;;;;;;19.83;9.20;;;;;;;;;;5071094;28;20047;-51
2022/02/04 00:24:43;;;;;;;20.13;9.07;;;;;;;;;;5081666;28;20033;-49
2022/02/04 00:27:15;;;;;;;21.90;10.52;;;;;;;;;;5069680;28;20560;-52
2022/02/04 00:30:00;;;;;;;18.80;10.07;;;;;;;;;;5067507;28;20021;-48
2022/02/04 00:32:29;;;;;;;18.48;9.63;;;;;;;;;;5060310;28;20031;-51
2022/02/04 00:35:07;;;;;;;21.98;10.15;;;;;;;;;;5072390;28;20016;-51
2022/02/04 00:37:52;;;;;;;21.92;9.65;;;;;;;;;;5066863;28;20048;-52
2022/02/04 00:40:20;;;;;;;20.58;10.02;;;;;;;;;;5070657;28;20028;-52
2022/02/04 00:42:47;;;;;;;20.95;9.60;;;;;;;;;;5071828;28;20132;-51
2022/02/04 00:45:22;;;;;;;17.80;9.73;;;;;;;;;;5070511;28;20078;-53
2022/02/04 00:47:55;;;;;;;21.17;10.02;;;;;;;;;;5069726;28;20031;-49
2022/02/04 00:50:37;;;;;;;;;;;;;;;;;;5062287;28;20029;-53
2022/02/04 00:53:13;;;;;;;18.83;9.55;;;;;;;;;;5071423;28;19916;-49
2022/02/04 00:55:49;;;;;;;18.40;9.18;;;;;;;;;;5070861;28;20360;-51
2022/02/04 01:13:12;;;;;;;21.48;10.65;;;;;;;;;;5067510;28;20036;-49
2022/02/04 01:26:02;;;;;;;21.15;10.30;;;;;;;;;;5068687;28;20044;-53
2022/02/04 01:28:29;;;;;;;23.73;10.05;;;;;;;;;;5072634;28;20036;-52
2022/02/04 01:30:56;;;;;;;19.75;10.20;;;;;;;;;;5067112;28;20096;-52
2022/02/04 01:33:22;;;;;;;21.90;10.40;;;;;;;;;;5075691;28;20086;-51
2022/02/04 01:35:48;;;;;;;25.13;10.50;;;;;;;;;;5077881;28;20085;-49
2022/02/04 01:38:14;;;;;;;23.10;9.82;;;;;;;;;;5072855;28;20033;-50
2022/02/04 01:40:40;;;;;;;23.67;9.88;;;;;;;;;;5075431;28;20108;-52
2022/02/04 01:43:06;;;;;;;25.55;10.55;;;;;;;;;;5075164;28;20066;-49
2022/02/04 01:45:32;;;;;;;22.45;10.48;;;;;;;;;;5068148;28;20032;-49
2022/02/04 01:47:58;;;;;;;23.52;10.52;;;;;;;;;;5071387;28;20028;-53
2022/02/04 01:50:25;;;;;;;26.30;11.18;;;;;;;;;;5075158;28;20044;-51
2022/02/04 01:52:51;;;;;;;23.55;9.70;;;;;;;;;;5073107;28;20058;-52
2022/02/04 01:55:18;;;;;;;25.67;9.57;;;;;;;;;;5067801;28;20025;-52
2022/02/04 01:57:44;;;;;;;21.38;9.77;;;;;;;;;;5075308;28;20024;-52
2022/02/04 02:00:11;;;;;;;21.67;9.60;;;;;;;;;;5074890;28;20060;-49
2022/02/04 02:02:37;;;;;;;25.75;10.50;;;;;;;;;;5074415;28;20487;-48
2022/02/04 02:05:03;;;;;;;25.52;9.98;;;;;;;;;;5074095;28;20036;-49
2022/02/04 02:07:30;;;;;;;19.58;9.63;;;;;;;;;;5074460;28;20101;-47
2022/02/04 02:10:05;;;;;;;21.23;10.02;;;;;;;;;;5067243;28;20108;-48
2022/02/04 02:12:38;;;;;;;23.38;9.95;;;;;;;;;;5071280;28;20033;-48
2022/02/04 02:15:17;;;;;;;26.25;11.65;;;;;;;;;;5066673;28;20100;-48
2022/02/04 02:34:53;;;;;;;27.67;11.48;;;;;;;;;;5074597;28;20071;-52
2022/02/04 02:38:26;;;;;;;26.90;11.48;;;;;;;;;;5074496;28;20520;-53
2022/02/04 02:48:21;;;;;;;27.33;11.83;;;;;;;;;;5074307;28;20426;-50
2022/02/04 02:53:51;;;;;;;26.83;11.70;;;;;;;;;;5063746;28;20043;-52
2022/02/04 02:56:42;;;;;;;27.50;11.40;;;;;;;;;;5083037;28;20037;-48
2022/02/04 02:59:17;;;;;;;25.58;11.65;;;;;;;;;;5073025;28;20043;-52
2022/02/04 03:01:47;;;;;;;25.85;12.18;;;;;;;;;;5070248;28;20024;-51
2022/02/04 03:04:16;;;;;;;26.33;11.35;;;;;;;;;;5072527;28;20033;-48
2022/02/04 03:06:42;;;;;;;27.55;11.88;;;;;;;;;;5064042;28;20063;-48
2022/02/04 03:09:08;;;;;;;27.83;11.75;;;;;;;;;;5063703;28;20546;-49
2022/02/04 03:11:34;;;;;;;26.20;11.50;;;;;;;;;;5073367;28;20099;-47
2022/02/04 03:14:00;;;;;;;23.73;10.48;;;;;;;;;;5072853;28;20032;-47
2022/02/04 03:16:27;;;;;;;26.55;11.38;;;;;;;;;;5073738;28;20029;-48
2022/02/04 03:18:55;;;;;;;26.63;11.07;;;;;;;;;;5064344;28;20464;-48
2022/02/04 03:21:35;;;;;;;24.73;10.63;;;;;;;;;;5072901;28;20047;-48
2022/02/04 03:24:15;;;;;;;24.73;11.30;;;;;;;;;;5073484;28;20033;-47
2022/02/04 03:26:51;;;;;;;27.73;11.07;;;;;;;;;;5073449;28;20110;-49
2022/02/04 03:29:25;;;;;;;28.52;12.30;;;;;;;;;;5069978;28;20048;-48
2022/02/04 03:31:55;;;;;;;25.23;11.65;;;;;;;;;;5072984;28;20495;-48
2022/02/04 03:34:21;;;;;;;25.33;11.13;;;;;;;;;;5073397;28;20048;-49
2022/02/04 03:36:47;;;;;;;27.15;11.23;;;;;;;;;;5072228;28;20044;-48
2022/02/04 03:39:13;;;;;;;27.10;11.63;;;;;;;;;;5073340;28;20067;-52
2022/02/04 03:41:39;;;;;;;30.65;11.95;;;;;;;;;;5072366;28;20020;-52
2022/02/04 03:44:05;;;;;;;29.95;11.93;;;;;;;;;;5072294;28;20082;-50
2022/02/04 03:46:31;;;;;;;26.92;11.35;;;;;;;;;;5069806;28;20069;-52
2022/02/04 03:48:57;;;;;;;24.95;10.70;;;;;;;;;;5062529;28;20091;-48
2022/02/04 03:51:23;;;;;;;24.95;10.45;;;;;;;;;;5071349;28;20626;-53
2022/02/04 03:53:49;;;;;;;23.75;10.30;;;;;;;;;;5064175;28;20537;-52
2022/02/04 03:56:15;;;;;;;23.17;10.90;;;;;;;;;;5060668;28;20024;-48
2022/02/04 03:58:42;;;;;;;26.73;10.95;;;;;;;;;;5072959;28;20445;-48
2022/02/04 04:01:08;;;;;;;24.17;11.43;;;;;;;;;;5072501;28;20012;-49
2022/02/04 04:03:34;;;;;;;24.20;11.30;;;;;;;;;;5079463;28;20033;-53
2022/02/04 04:06:00;;;;;;;25.77;11.57;;;;;;;;;;5064157;28;20119;-52
2022/02/04 04:08:26;;;;;;;28.00;11.05;;;;;;;;;;5072502;28;20032;-52
2022/02/04 04:10:53;;;;;;;24.27;10.25;;;;;;;;;;5069854;28;20021;-51
2022/02/04 04:13:19;;;;;;;25.35;11.48;;;;;;;;;;5066784;28;20099;-51
2022/02/04 04:15:45;;;;;;;24.70;10.85;;;;;;;;;;5072580;28;20074;-49
2022/02/04 04:18:15;;;;;;;26.75;11.95;;;;;;;;;;5072191;28;20412;-50
2022/02/04 04:20:42;;;;;;;22.52;9.98;;;;;;;;;;5071193;28;20032;-49
2022/02/04 04:23:08;;;;;;;25.25;11.18;;;;;;;;;;5070130;28;20480;-52
2022/02/04 04:25:34;;;;;;;28.48;11.23;;;;;;;;;;5072582;28;20116;-49
2022/02/04 04:28:00;;;;;;;29.25;12.05;;;;;;;;;;5072369;28;20116;-51
2022/02/04 04:30:26;;;;;;;26.25;10.88;;;;;;;;;;5072510;28;20373;-50
2022/02/04 04:32:53;;;;;;;23.10;10.50;;;;;;;;;;5069464;28;20099;-51
2022/02/04 04:35:22;;;;;;;28.80;12.00;;;;;;;;;;5061229;28;20531;-51
2022/02/04 04:37:54;;;;;;;25.60;10.75;;;;;;;;;;5072396;28;20036;-49
2022/02/04 04:40:34;;;;;;;26.23;10.82;;;;;;;;;;5063648;28;20044;-49
2022/02/04 04:43:14;;;;;;;21.58;10.27;;;;;;;;;;5068233;28;20528;-48
2022/02/04 05:26:56;;;;;;;25.00;10.25;;;;;;;;;;5072233;28;20047;-51
2022/02/04 05:29:17;;;;;;;25.40;10.30;;;;;;;;;;5064676;28;20048;-49
2022/02/04 05:31:43;;;;;;;25.25;10.77;;;;;;;;;;5069990;28;20028;-53
2022/02/04 05:34:09;;;;;;;22.05;10.82;;;;;;;;;;5071373;28;20032;-52
2022/02/04 05:36:41;;;;;;;26.10;11.13;;;;;;;;;;5071683;28;20037;-52
2022/02/04 05:39:07;;;;;;;22.13;10.32;;;;;;;;;;5067405;28;20045;-48
2022/02/04 05:41:38;;;;;;;32.25;11.57;;;;;;;;;;5066337;28;20107;-47
2022/02/04 05:44:09;;;;;;;24.92;11.45;;;;;;;;;;5065426;28;20036;-48
2022/02/04 05:46:46;;;;;;;33.40;12.25;;;;;;;;;;5070979;28;20035;-48
2022/02/04 05:49:14;;;;;;;24.40;10.43;;;;;;;;;;5070277;28;20062;-51
2022/02/04 05:52:05;;;;;;;26.00;10.70;;;;;;;;;;5065831;28;20047;-48
2022/02/04 05:57:08;;;;;;;28.55;11.02;;;;;;;;;;5071792;28;20103;-48
2022/02/04 06:00:15;;;;;;;28.77;11.15;;;;;;;;;;5071723;28;20036;-48
2022/02/04 06:02:53;;;;;;;26.95;11.60;;;;;;;;;;5065993;28;20036;-49
2022/02/04 06:05:51;;;;;;;23.83;10.85;;;;;;;;;;5071509;28;20036;-49
2022/02/04 06:24:12;;;;;;;25.23;10.93;;;;;;;;;;5070608;28;20648;-52
2022/02/04 06:26:38;;;;;;;24.52;10.02;;;;;;;;;;5073961;28;20028;-50
2022/02/04 06:29:04;;;;;;;26.30;10.90;;;;;;;;;;5073209;28;20029;-52
2022/02/04 06:31:30;;;;;;;23.48;10.40;;;;;;;;;;5070987;28;20031;-50
2022/02/04 06:33:56;;;;;;;25.65;10.90;;;;;;;;;;5081733;28;20507;-52
2022/02/04 06:36:22;;;;;;;23.75;9.73;;;;;;;;;;5073512;28;20028;-48
2022/02/04 06:38:48;;;;;;;22.13;9.90;;;;;;;;;;5074845;28;20109;-48
2022/02/04 06:41:14;;;;;;;23.98;10.57;;;;;;;;;;5074022;28;20111;-48
2022/02/04 06:43:40;;;;;;;26.45;11.07;;;;;;;;;;5065658;28;20497;-53
2022/02/04 06:46:06;;;;;;;22.83;9.98;;;;;;;;;;5070155;28;20157;-53
2022/02/04 06:48:32;;;;;;;22.17;9.68;;;;;;;;;;5073989;28;20820;-50
2022/02/04 06:50:58;;;;;;;24.30;10.40;;;;;;;;;;5065151;28;20037;-49
2022/02/04 06:53:24;;;;;;;21.40;10.23;;;;;;;;;;5074557;28;20028;-49
2022/02/04 06:55:50;;;;;;;23.08;10.20;;;;;;;;;;5074351;28;20032;-50
2022/02/04 06:58:16;;;;;;;23.20;9.90;;;;;;;;;;5074273;28;20048;-50
2022/02/04 07:00:42;;;;;;;22.85;9.85;;;;;;;;;;5071292;28;20142;-49
2022/02/04 07:03:09;;;;;;;22.40;9.68;;;;;;;;;;5072866;28;20140;-51
2022/02/04 07:05:41;;;;;;;22.42;10.50;;;;;;;;;;5072576;28;20048;-51
2022/02/04 07:08:18;;;;;;;23.10;10.32;;;;;;;;;;5073104;28;20033;-48
2022/02/04 07:13:27;;;;;;;21.55;9.73;;;;;;;;;;5070385;28;20071;-52
2022/02/04 07:15:59;;;;;;;20.52;10.02;;;;;;;;;;5062068;28;20035;-47
2022/02/04 07:21:09;;;;;;;22.08;9.55;;;;;;;;;;5058071;28;20147;-49
2022/02/04 07:23:39;;;;;;;22.25;10.45;;;;;;;;;;5066842;28;20024;-50
2022/02/04 07:26:05;;;;;;;21.75;10.02;;;;;;;;;;5067082;28;20031;-52
2022/02/04 07:28:31;;;;;;;27.92;12.20;;;;;;;;;;5063423;28;20419;-50
2022/02/04 07:30:59;;;;;;;24.75;9.90;;;;;;;;;;5072777;28;20024;-54
2022/02/04 07:33:38;;;;;;;20.92;9.48;;;;;;;;;;5067523;28;20020;-51
2022/02/04 07:40:51;;;;;;;19.65;9.43;;;;;;;;;;5066656;28;20051;-47
2022/02/04 07:41:34;;;;;;;19.58;9.40;;;;;;;;;;5062943;28;20044;-52
2022/02/04 07:44:00;;;;;;;18.40;9.05;;;;;;;;;;5071759;28;20098;-50
2022/02/04 07:46:26;;;;;;;19.60;8.63;;;;;;;;;;5066690;28;20029;-51
2022/02/04 07:48:52;;;;;;;21.55;9.43;;;;;;;;;;5072352;28;20032;-48
2022/02/04 07:51:19;;;;;;;19.13;8.55;;;;;;;;;;5072251;28;20037;-52
2022/02/04 07:53:45;;;;;;;19.23;8.93;;;;;;;;;;5072971;28;20051;-51
2022/02/04 07:56:11;;;;;;;17.58;7.88;;;;;;;;;;5069858;28;20036;-51
2022/02/04 07:58:37;;;;;;;16.52;7.82;;;;;;;;;;5072409;28;20033;-51
2022/02/04 08:01:03;;;;;;;17.90;8.20;;;;;;;;;;5065274;28;20032;-48
2022/02/04 08:03:41;;;;;;;14.45;7.22;;;;;;;;;;5072722;28;20032;-50
2022/02/04 08:06:12;;;;;;;14.98;7.35;;;;;;;;;;5063437;28;20093;-51
2022/02/04 08:11:21;;;;;;;14.40;6.72;;;;;;;;;;5067777;28;20083;-48
2022/02/04 08:14:09;;;;;;;14.60;7.00;;;;;;;;;;5068337;28;20068;-49
2022/02/04 08:24:54;;;;;;;14.02;6.50;;;;;;;;;;5066701;28;20132;-48
2022/02/04 08:30:43;;;;;;;13.35;6.78;;;;;;;;;;5026694;28;20665;-50
2022/02/04 08:33:35;;;;;;;10.85;5.85;;;;;;;;;;5068160;28;20028;-49
2022/02/04 08:39:09;;;;;;;15.30;6.47;;;;;;;;;;5038417;28;20468;-49
2022/02/04 08:49:54;;;;;;;12.02;5.22;;;;;;;;;;5082742;28;20357;-48
2022/02/04 08:52:39;;;;;;;9.32;4.82;;;;;;;;;;5068602;28;20488;-48
2022/02/04 08:55:10;;;;;;;10.73;5.20;;;;;;;;;;5068040;28;20435;-49
2022/02/04 08:57:54;;;;;;;8.98;4.53;;;;;;;;;;5067049;28;20024;-50
2022/02/04 09:00:33;;;;;;;8.52;4.65;;;;;;;;;;5070819;28;20373;-52
2022/02/04 09:03:13;;;;;;;9.40;5.28;;;;;;;;;;5067236;28;20023;-53
2022/02/04 09:05:43;;;;;;;10.60;5.47;;;;;;;;;;5074022;28;20027;-47
2022/02/04 09:08:22;;;;;;;12.10;5.13;;;;;;;;;;5078023;28;20040;-49
2022/02/04 09:10:51;;;;;;;13.48;4.95;;;;;;;;;;5069615;28;20031;-51
2022/02/04 09:19:01;;;;;;;9.63;4.97;;;;;;;;;;5070484;28;20043;-52
2022/02/04 09:21:51;;;;;;;9.85;5.32;;;;;;;;;;5067271;28;20054;-49
2022/02/04 09:24:18;;;;;;;9.15;4.78;;;;;;;;;;5067586;28;20082;-51
2022/02/04 09:26:44;;;;;;;8.43;4.90;;;;;;;;;;5064316;28;20024;-52
2022/02/04 09:29:10;;;;;;;8.88;4.75;;;;;;;;;;5066774;28;20541;-50
2022/02/04 09:31:38;;;;;;;10.13;5.20;;;;;;;;;;5063403;28;20073;-52
2022/02/04 09:34:04;;;;;;;8.82;4.85;;;;;;;;;;5065814;28;20081;-51
2022/02/04 09:36:30;;;;;;;11.18;4.97;;;;;;;;;;5068880;28;20535;-52
2022/02/04 09:38:58;;;;;;;11.25;5.10;;;;;;;;;;5070484;28;20548;-49
2022/02/04 09:41:24;;;;;;;12.18;5.47;;;;;;;;;;5065332;28;20044;-48
2022/02/04 09:43:50;;;;;;;8.95;4.93;;;;;;;;;;5067988;28;20035;-50
2022/02/04 09:46:17;;;;;;;11.75;6.07;;;;;;;;;;5070657;28;20036;-49
2022/02/04 09:48:46;;;;;;;10.90;5.47;;;;;;;;;;5074918;28;20039;-48
2022/02/04 09:51:15;;;;;;;9.45;5.03;;;;;;;;;;5066522;28;20471;-50
2022/02/04 10:07:49;;;;;;;12.50;6.10;;;;;;;;;;5071713;28;20085;-51
2022/02/04 10:11:33;;;;;;;9.77;5.30;;;;;;;;;;5069003;28;20169;-51
2022/02/04 10:18:09;;;;;;;9.88;5.32;;;;;;;;;;5064592;28;20427;-49
2022/02/04 10:20:35;;;;;;;13.27;5.43;;;;;;;;;;5067819;28;20033;-51
2022/02/04 10:23:02;;;;;;;12.85;5.68;;;;;;;;;;5069393;28;20088;-50
2022/02/04 10:25:32;;;;;;;12.07;5.63;;;;;;;;;;5064456;28;20025;-51
2022/02/04 10:28:01;;;;;;;10.75;4.70;;;;;;;;;;5066937;28;20024;-52
2022/02/04 10:30:31;;;;;;;10.57;5.10;;;;;;;;;;5070753;28;20078;-49
2022/02/04 10:32:58;;;;;;;11.10;5.75;;;;;;;;;;5074043;28;20020;-51
2022/02/04 10:35:32;;;;;;;8.93;4.35;;;;;;;;;;5060080;28;20037;-48
2022/02/04 10:38:06;;;;;;;9.85;5.05;;;;;;;;;;5060661;28;20054;-47
2022/02/04 10:40:44;;;;;;;10.20;4.90;;;;;;;;;;5070574;28;20071;-48
2022/02/04 10:43:40;;;;;;;9.05;4.57;;;;;;;;;;5072348;28;20379;-52
2022/02/04 10:55:08;;;;;;;8.75;4.80;;;;;;;;;;5071476;28;20695;-52
2022/02/04 10:57:53;;;;;;;11.18;5.45;;;;;;;;;;5071334;28;20041;-49
2022/02/04 11:00:39;;;;;;;11.52;4.75;;;;;;;;;;5062587;28;20492;-50
2022/02/04 11:03:10;;;;;;;9.00;4.55;;;;;;;;;;5061646;28;20017;-52
2022/02/04 11:08:50;;;;;;;8.10;4.43;;;;;;;;;;5050218;28;20033;-47
2022/02/04 11:11:38;;;;;;;8.43;4.28;;;;;;;;;;5070135;28;20426;-48
2022/02/04 11:31:03;;;;;;;8.30;4.45;;;;;;;;;;5065109;28;20027;-48
2022/02/04 11:36:11;;;;;;;8.50;4.00;;;;;;;;;;5059743;28;20044;-50
2022/02/04 11:52:30;;;;;;;7.47;3.97;;;;;;;;;;5060487;28;20476;-47
2022/02/04 11:54:59;;;;;;;7.57;4.20;;;;;;;;;;5068860;28;20071;-49
2022/02/04 11:57:29;;;;;;;6.53;3.58;;;;;;;;;;5074556;28;20069;-47
2022/02/04 12:00:04;;;;;;;5.72;3.63;;;;;;;;;;5064856;28;20481;-46
2022/02/04 12:02:33;;;;;;;7.20;4.00;;;;;;;;;;5072907;28;20071;-48
2022/02/04 12:07:40;;;;;;;7.95;3.35;;;;;;;;;;5075841;28;20040;-49
2022/02/04 12:10:27;;;;;;;6.28;3.42;;;;;;;;;;5066565;28;20031;-50
2022/02/04 12:12:53;;;;;;;5.57;3.22;;;;;;;;;;5072788;28;20123;-51
2022/02/04 12:15:31;;;;;;;6.25;3.42;;;;;;;;;;5071230;28;20028;-47
2022/02/04 12:18:15;;;;;;;3.42;2.53;;;;;;;;;;5065284;28;20070;-49
2022/02/04 12:20:49;;;;;;;4.65;2.80;;;;;;;;;;5064157;28;20059;-46
2022/02/04 12:23:35;;;;;;;5.25;2.95;;;;;;;;;;5058908;28;20036;-47
2022/02/04 12:26:04;;;;;;;5.47;3.10;;;;;;;;;;5067884;28;20024;-49
2022/02/04 12:28:41;;;;;;;4.60;2.78;;;;;;;;;;5067169;28;20055;-52
2022/02/04 12:31:14;;;;;;;4.88;3.10;;;;;;;;;;5064458;28;20025;-47
2022/02/04 12:33:48;;;;;;;4.65;2.72;;;;;;;;;;5069873;28;20020;-46
2022/02/04 12:36:13;;;;;;;;;;;;;;;;;;5063137;28;20025;-47
2022/02/04 12:38:40;;;;;;;3.92;2.17;;;;;;;;;;5072238;28;19909;-47
2022/02/04 12:41:05;;;;;;;5.07;2.70;;;;;;;;;;5062989;28;20055;-50
2022/02/04 12:43:37;;;;;;;3.67;2.47;;;;;;;;;;5071075;28;20036;-50
2022/02/04 12:46:04;;;;;;;4.60;2.78;;;;;;;;;;5063605;28;20043;-51
2022/02/04 12:48:30;;;;;;;4.28;2.42;;;;;;;;;;5072002;28;20085;-48
2022/02/04 12:50:56;;;;;;;4.45;2.47;;;;;;;;;;5061454;28;20017;-49
2022/02/04 12:53:23;;;;;;;6.05;2.53;;;;;;;;;;5063779;28;20098;-49
2022/02/04 12:56:03;;;;;;;5.53;2.78;;;;;;;;;;5060278;28;20524;-48
2022/02/04 13:07:31;;;;;;;5.97;2.95;;;;;;;;;;5070217;28;20035;-51
2022/02/04 13:07:38;;;;;;;4.53;2.63;;;;;;;;;;5064550;28;20373;-48
2022/02/04 13:10:05;;;;;;;4.15;2.53;;;;;;;;;;5063155;28;20142;-49
2022/02/04 13:12:31;;;;;;;4.35;2.92;;;;;;;;;;5070865;28;20032;-50
2022/02/04 13:14:57;;;;;;;4.95;2.40;;;;;;;;;;5071731;28;20522;-50
2022/02/04 13:17:30;;;;;;;6.53;2.85;;;;;;;;;;5074652;28;20354;-49
2022/02/04 13:19:56;;;;;;;5.70;2.97;;;;;;;;;;5075425;28;20537;-50
2022/02/04 13:22:23;;;;;;;5.85;2.85;;;;;;;;;;5064513;28;20048;-47
2022/02/04 13:25:08;;;;;;;5.22;3.13;;;;;;;;;;5069236;28;20037;-47
2022/02/04 13:27:35;;;;;;;6.88;2.97;;;;;;;;;;5068469;28;20107;-52
2022/02/04 13:30:20;;;;;;;4.60;2.78;;;;;;;;;;5068219;28;20112;-47
2022/02/04 13:32:46;;;;;;;6.18;3.13;;;;;;;;;;5075204;28;20504;-47
2022/02/04 13:35:32;;;;;;;5.15;2.95;;;;;;;;;;5072136;28;20054;-50
2022/02/04 13:38:02;;;;;;;7.47;3.15;;;;;;;;;;5067737;28;20021;-49
2022/02/04 13:40:53;;;;;;;4.47;2.85;;;;;;;;;;5069829;28;20066;-46
2022/02/04 13:43:31;;;;;;;5.20;2.90;;;;;;;;;;5070068;28;20037;-47
2022/02/04 13:46:06;;;;;;;4.15;2.30;;;;;;;;;;5068701;28;20028;-48
2022/02/04 13:48:53;;;;;;;5.05;3.17;;;;;;;;;;5062873;28;20035;-48
2022/02/04 13:54:09;;;;;;;4.05;2.60;;;;;;;;;;5071866;28;20036;-50
2022/02/04 13:56:55;;;;;;;4.38;2.63;;;;;;;;;;5073684;28;20139;-50
2022/02/04 13:59:36;;;;;;;4.35;2.20;;;;;;;;;;5066936;28;20036;-52
2022/02/04 14:02:06;;;;;;;3.20;1.95;;;;;;;;;;5069916;28;20051;-47
2022/02/04 14:04:32;;;;;;;3.72;2.10;;;;;;;;;;5071284;28;20432;-51
2022/02/04 14:07:08;;;;;;;4.15;2.25;;;;;;;;;;5074925;28;20360;-49
2022/02/04 14:09:38;;;;;;;4.28;2.38;;;;;;;;;;5069030;28;20071;-49
2022/02/04 14:12:15;;;;;;;5.07;2.83;;;;;;;;;;5067831;28;20025;-49
2022/02/04 14:14:41;;;;;;;4.07;2.20;;;;;;;;;;5072760;28;20039;-50
2022/02/04 14:17:07;;;;;;;3.20;1.90;;;;;;;;;;5073104;28;20115;-51
2022/02/04 14:19:33;;;;;;;4.22;2.35;;;;;;;;;;5066413;28;20369;-48
2022/02/04 14:21:59;;;;;;;4.35;2.13;;;;;;;;;;5074611;28;20024;-51
2022/02/04 14:24:26;;;;;;;3.70;1.90;;;;;;;;;;5069237;28;20385;-47
2022/02/04 14:26:54;;;;;;;5.13;2.15;;;;;;;;;;5063576;28;20037;-47
2022/02/04 14:29:29;;;;;;;2.47;1.65;;;;;;;;;;5063134;28;20044;-46
2022/02/04 14:37:31;;;;;;;2.15;1.33;;;;;;;;;;5069109;28;20153;-50
2022/02/04 14:51:41;;;;;;;1.40;1.10;;;;;;;;;;5073595;28;20085;-49
2022/02/04 14:54:09;;;;;;;1.83;1.35;;;;;;;;;;5069110;28;20028;-48
2022/02/04 15:02:06;;;;;;;2.05;1.30;;;;;;;;;;5077948;28;20126;-51
2022/02/04 15:04:40;;;;;;;2.20;1.20;;;;;;;;;;5059220;28;20033;-52
2022/02/04 15:07:08;;;;;;;1.58;1.20;;;;;;;;;;5064226;28;20037;-49
2022/02/04 15:09:36;;;;;;;1.65;1.15;;;;;;;;;;5066965;28;20397;-51
2022/02/04 15:12:02;;;;;;;1.52;0.90;;;;;;;;;;5067857;28;20465;-50
2022/02/04 15:14:28;;;;;;;3.95;0.80;;;;;;;;;;5071538;28;20107;-50
2022/02/04 15:16:54;;;;;;;1.42;0.98;;;;;;;;;;5066084;28;20032;-46
2022/02/04 15:19:21;;;;;;;3.58;0.98;;;;;;;;;;5069323;28;20032;-51
2022/02/04 15:21:48;;;;;;;1.17;0.93;;;;;;;;;;5072443;28;20441;-49
2022/02/04 15:24:14;;;;;;;1.83;1.00;;;;;;;;;;5065202;28;20033;-51
2022/02/04 15:26:40;;;;;;;1.10;0.80;;;;;;;;;;5065573;28;20032;-48
2022/02/04 15:29:13;;;;;;;0.88;0.82;;;;;;;;;;5072416;28;20032;-48
2022/02/04 15:31:46;;;;;;;1.27;0.73;;;;;;;;;;5072454;28;20032;-46
2022/02/04 15:34:15;;;;;;;1.20;0.70;;;;;;;;;;5069333;28;20032;-47
2022/02/04 15:36:44;;;;;;;0.85;0.82;;;;;;;;;;5070935;28;20105;-47
2022/02/04 15:39:30;;;;;;;0.90;0.75;;;;;;;;;;5067203;28;20035;-46
2022/02/04 15:41:57;;;;;;;1.35;0.70;;;;;;;;;;5055575;28;20134;-48
2022/02/04 15:44:36;;;;;;;1.02;0.80;;;;;;;;;;5069101;28;20028;-47
2022/02/04 15:47:21;;;;;;;0.75;0.60;;;;;;;;;;5065831;28;20036;-48
2022/02/04 15:55:23;;;;;;;1.23;0.80;;;;;;;;;;5057071;28;20082;-47
2022/02/04 16:00:50;;;;;;;1.98;0.90;;;;;;;;;;5068791;28;20039;-50
2022/02/04 16:03:37;;;;;;;1.25;0.80;;;;;;;;;;5062945;28;20037;-52
2022/02/04 16:06:07;;;;;;;0.73;0.50;;;;;;;;;;5071542;28;20056;-47
2022/02/04 16:08:34;;;;;;;0.50;0.50;;;;;;;;;;5060051;28;20032;-48
2022/02/04 16:13:46;;;;;;;1.15;0.70;;;;;;;;;;5066461;28;20082;-49
2022/02/04 16:18:56;;;;;;;0.90;0.55;;;;;;;;;;5070407;28;20075;-49
2022/02/04 16:21:29;;;;;;;0.65;0.60;;;;;;;;;;5060122;28;20024;-51
2022/02/04 16:24:35;;;;;;;;;;;;;;;;;;5067989;28;20523;-48
2022/02/04 16:28:38;;;;;;;1.00;0.60;;;;;;;;;;5068135;28;19912;-46
2022/02/04 16:29:37;;;;;;;0.70;0.50;;;;;;;;;;5058446;28;20481;-46
2022/02/04 16:32:04;;;;;;;1.58;0.88;;;;;;;;;;5064514;28;20399;-49
2022/02/04 16:34:30;;;;;;;1.27;0.77;;;;;;;;;;5067385;28;20456;-47
2022/02/04 16:37:01;;;;;;;0.60;0.50;;;;;;;;;;5064771;28;20027;-47
2022/02/04 16:39:27;;;;;;;1.05;0.68;;;;;;;;;;5059823;28;20032;-52
2022/02/04 16:42:02;;;;;;;1.35;0.80;;;;;;;;;;5061867;28;20052;-49
2022/02/04 16:44:31;;;;;;;1.02;0.60;;;;;;;;;;5062459;28;20492;-47
2022/02/04 16:46:57;;;;;;;1.23;0.70;;;;;;;;;;5065678;28;20032;-47
2022/02/04 16:49:23;;;;;;;2.67;0.80;;;;;;;;;;5069864;28;20035;-50
2022/02/04 16:51:49;;;;;;;3.50;0.93;;;;;;;;;;5069813;28;20512;-51
2022/02/04 16:54:18;;;;;;;0.70;0.63;;;;;;;;;;5071588;28;20615;-48
2022/02/04 16:56:44;;;;;;;1.33;0.70;;;;;;;;;;5060240;28;20025;-48
2022/02/04 16:59:10;;;;;;;1.20;0.75;;;;;;;;;;5067554;28;20032;-49
2022/02/04 17:01:36;;;;;;;0.70;0.68;;;;;;;;;;5068851;28;20035;-49
2022/02/04 17:04:04;;;;;;;1.27;0.90;;;;;;;;;;5064154;28;20095;-52
2022/02/04 17:06:35;;;;;;;1.30;0.80;;;;;;;;;;5067150;28;20029;-48
2022/02/04 17:09:20;;;;;;;1.40;0.80;;;;;;;;;;5075899;28;20480;-48
2022/02/04 17:11:47;;;;;;;1.10;0.70;;;;;;;;;;5065747;28;20082;-49
2022/02/04 17:14:14;;;;;;;1.52;0.90;;;;;;;;;;5064277;28;20029;-51
2022/02/04 17:16:44;;;;;;;0.93;0.65;;;;;;;;;;5065119;28;20025;-51
2022/02/04 17:19:11;;;;;;;1.30;0.80;;;;;;;;;;5069009;28;20040;-46
2022/02/04 17:21:38;;;;;;;1.00;0.73;;;;;;;;;;5070317;28;20132;-47
2022/02/04 17:24:04;;;;;;;1.60;1.08;;;;;;;;;;5058690;28;20040;-50
2022/02/04 17:26:30;;;;;;;0.90;0.57;;;;;;;;;;5058127;28;20562;-49
2022/02/04 17:28:56;;;;;;;0.70;0.57;;;;;;;;;;5061978;28;20025;-51
2022/02/04 17:31:22;;;;;;;2.00;0.98;;;;;;;;;;5061573;28;20020;-48
2022/02/04 17:33:48;;;;;;;1.02;0.75;;;;;;;;;;5061203;28;20556;-47
2022/02/04 17:36:14;;;;;;;1.33;0.93;;;;;;;;;;5062905;28;20033;-47
2022/02/04 17:38:42;;;;;;;1.25;0.80;;;;;;;;;;5062930;28;20040;-49
2022/02/04 17:41:10;;;;;;;0.70;0.60;;;;;;;;;;5062068;28;20035;-49
2022/02/04 17:43:36;;;;;;;2.05;0.90;;;;;;;;;;5067558;28;20029;-46
2022/02/04 17:46:03;;;;;;;1.67;0.90;;;;;;;;;;5071572;28;20020;-50
2022/02/04 17:49:17;;;;;;;0.90;0.80;;;;;;;;;;5068424;28;20437;-48
2022/02/04 17:53:55;;;;;;;3.70;1.20;;;;;;;;;;5068188;28;20042;-51
2022/02/04 17:56:39;;;;;;;1.23;0.90;;;;;;;;;;5068449;28;20460;-48
2022/02/04 17:59:31;;;;;;;0.65;0.55;;;;;;;;;;5066074;28;20150;-50
2022/02/04 18:02:12;;;;;;;1.88;0.88;;;;;;;;;;5064442;28;20122;-50
2022/02/04 18:07:25;;;;;;;1.35;0.63;;;;;;;;;;5070358;28;20078;-50
2022/02/04 18:09:51;;;;;;;1.45;0.70;;;;;;;;;;5065618;28;20731;-48
2022/02/04 18:12:24;;;;;;;1.77;0.90;;;;;;;;;;5073469;28;20032;-48
2022/02/04 18:14:53;;;;;;;0.95;0.80;;;;;;;;;;5066418;28;20530;-50
2022/02/04 18:17:20;;;;;;;0.50;0.50;;;;;;;;;;5067717;28;20330;-51
2022/02/04 18:19:46;;;;;;;1.10;0.90;;;;;;;;;;5063798;28;20139;-48
2022/02/04 18:22:12;;;;;;;1.15;0.90;;;;;;;;;;5073364;28;20107;-51
2022/02/04 18:24:39;;;;;;;0.85;0.73;;;;;;;;;;5065083;28;20482;-50
2022/02/04 18:27:07;;;;;;;1.30;0.70;;;;;;;;;;5059677;28;20481;-51
2022/02/04 18:29:34;;;;;;;1.67;0.90;;;;;;;;;;5060731;28;20097;-50
2022/02/04 18:32:00;;;;;;;1.38;0.80;;;;;;;;;;5073633;28;20028;-48
2022/02/04 18:34:26;;;;;;;1.52;0.88;;;;;;;;;;5068487;28;20094;-47
2022/02/04 18:36:55;;;;;;;0.73;0.60;;;;;;;;;;5071779;28;20025;-48
2022/02/04 18:39:29;;;;;;;0.73;0.73;;;;;;;;;;5061795;28;20392;-48
2022/02/04 18:44:48;;;;;;;1.48;0.98;;;;;;;;;;5071839;28;20086;-47
2022/02/04 18:47:30;;;;;;;1.23;0.85;;;;;;;;;;5069892;28;20037;-50
2022/02/04 18:50:07;;;;;;;0.85;0.60;;;;;;;;;;5070318;28;20035;-49
2022/02/04 18:52:44;;;;;;;0.98;0.60;;;;;;;;;;5062815;28;20129;-50
2022/02/04 18:55:40;;;;;;;1.50;0.80;;;;;;;;;;5075882;28;20022;-51
2022/02/04 18:58:02;;;;;;;0.90;0.68;;;;;;;;;;5074283;28;20029;-51
2022/02/04 19:00:28;;;;;;;1.02;0.70;;;;;;;;;;5071088;28;20050;-48
2022/02/04 19:02:57;;;;;;;0.73;0.60;;;;;;;;;;5076668;28;20114;-48
2022/02/04 19:05:28;;;;;;;0.70;0.65;;;;;;;;;;5076823;28;20056;-48
2022/02/04 19:08:03;;;;;;;0.82;0.70;;;;;;;;;;5084455;28;20601;-51
2022/02/04 19:10:29;;;;;;;2.20;1.20;;;;;;;;;;5069797;28;20124;-52
2022/02/04 19:13:02;;;;;;;0.63;0.57;;;;;;;;;;5071951;28;20020;-49
2022/02/04 19:18:14;;;;;;;0.77;0.67;;;;;;;;;;5077128;28;20031;-48
2022/02/04 19:20:45;;;;;;;1.77;0.93;;;;;;;;;;5075164;28;20012;-50
2022/02/04 19:23:12;;;;;;;0.90;0.68;;;;;;;;;;5076348;28;20056;-48
2022/02/04 19:25:41;;;;;;;0.90;0.63;;;;;;;;;;5078107;28;20021;-48
2022/02/04 19:28:09;;;;;;;1.27;0.80;;;;;;;;;;5076253;28;20016;-49
2022/02/04 19:30:41;;;;;;;0.68;0.68;;;;;;;;;;5071158;28;20020;-48
2022/02/04 19:33:07;;;;;;;1.08;0.70;;;;;;;;;;5069632;28;20036;-50
2022/02/04 19:35:33;;;;;;;1.90;0.82;;;;;;;;;;5075785;28;20168;-48
2022/02/04 19:37:59;;;;;;;2.88;1.27;;;;;;;;;;5071951;28;20504;-49
2022/02/04 19:40:25;;;;;;;1.02;0.80;;;;;;;;;;5073039;28;20036;-52
2022/02/04 19:42:51;;;;;;;2.00;0.90;;;;;;;;;;5075649;28;20532;-46
2022/02/04 19:45:24;;;;;;;0.75;0.60;;;;;;;;;;5071948;28;20408;-50
2022/02/04 19:47:56;;;;;;;1.40;1.00;;;;;;;;;;5077157;28;20031;-49
2022/02/04 19:53:08;;;;;;;0.82;0.70;;;;;;;;;;5072809;28;20165;-52